Time;durP1;ratioP1;P1;durP2;ratioP2;P2;SDS_P1;SDS_P2;PMS_P1;PMS_P2;Temp;Humidity;BMP_temperature;BMP_pressure;BME280_temperature;BME280_humidity;BME280_pressure;Samples;Min_cycle;Max_cycle;Signal;HPM_P1;HPM_P2
2023/04/25 00:02:14;;;;;;;0.00;0.00;;;6.70;81.70;;;;;;4933620;29;20047;-66
2023/04/25 00:19:37;;;;;;;0.50;0.50;;;6.70;81.40;;;;;;4947615;29;20038;-67
2023/04/25 00:33:05;;;;;;;0.20;0.13;;;6.80;82.10;;;;;;4951311;29;20094;-66
2023/04/25 00:35:31;;;;;;;0.57;0.57;;;6.80;82.00;;;;;;4934045;29;20055;-66
2023/04/25 00:37:57;;;;;;;0.00;0.00;;;6.80;82.00;;;;;;4951171;29;20055;-66
2023/04/25 00:40:23;;;;;;;0.00;0.00;;;6.90;82.20;;;;;;4950871;29;20067;-66
2023/04/25 00:42:51;;;;;;;0.80;0.80;;;6.90;81.70;;;;;;4950778;29;20055;-66
2023/04/25 00:45:17;;;;;;;0.00;0.00;;;6.90;81.30;;;;;;4950812;29;20086;-66
2023/04/25 00:47:43;;;;;;;0.00;0.00;;;6.90;80.60;;;;;;4950880;29;20039;-66
2023/04/25 00:50:09;;;;;;;0.00;0.00;;;6.80;79.90;;;;;;4934081;29;20134;-66
2023/04/25 00:52:40;;;;;;;0.00;0.00;;;6.90;79.70;;;;;;4950846;29;20054;-66
2023/04/25 00:55:07;;;;;;;0.05;0.05;;;6.80;79.30;;;;;;4950737;29;20599;-67
2023/04/25 00:57:33;;;;;;;0.00;0.00;;;6.70;77.40;;;;;;4933920;29;20043;-67
2023/04/25 00:59:59;;;;;;;0.00;0.00;;;6.70;77.00;;;;;;4950264;29;20069;-66
2023/04/25 01:02:26;;;;;;;0.00;0.00;;;6.70;77.70;;;;;;4933623;29;20054;-66
2023/04/25 01:04:52;;;;;;;0.00;0.00;;;6.70;76.90;;;;;;4950934;29;20054;-66
2023/04/25 01:07:18;;;;;;;0.00;0.00;;;6.60;76.30;;;;;;4950630;29;20047;-66
2023/04/25 01:09:44;;;;;;;1.48;1.38;;;6.60;76.70;;;;;;4950396;28;20045;-66
2023/04/25 01:12:09;;;;;;;0.08;0.08;;;6.60;77.50;;;;;;4950534;29;20047;-66
2023/04/25 01:14:35;;;;;;;0.05;0.05;;;6.60;77.30;;;;;;4953874;28;20055;-66
2023/04/25 01:17:01;;;;;;;0.10;0.10;;;6.60;77.90;;;;;;4953902;29;20139;-66
2023/04/25 01:19:27;;;;;;;0.00;0.00;;;6.60;77.30;;;;;;4954266;29;20054;-66
2023/04/25 01:21:52;;;;;;;0.00;0.00;;;6.60;77.80;;;;;;4936755;29;20055;-66
2023/04/25 01:24:18;;;;;;;0.75;0.75;;;6.60;77.80;;;;;;4953586;29;20508;-67
2023/04/25 01:26:49;;;;;;;0.63;0.63;;;6.60;78.60;;;;;;4954014;29;20102;-67
2023/04/25 01:29:16;;;;;;;0.00;0.00;;;6.60;79.40;;;;;;4953928;29;20105;-66
2023/04/25 01:31:44;;;;;;;0.20;0.20;;;6.60;79.90;;;;;;4953975;29;20051;-67
2023/04/25 01:34:09;;;;;;;0.00;0.00;;;6.60;80.40;;;;;;4954227;29;20047;-66
2023/04/25 01:36:35;;;;;;;0.00;0.00;;;6.60;80.60;;;;;;4936317;29;20047;-66
2023/04/25 01:39:01;;;;;;;1.00;1.00;;;6.60;80.90;;;;;;4936505;29;20519;-67
2023/04/25 01:41:27;;;;;;;0.00;0.00;;;6.60;80.50;;;;;;4953618;29;20440;-67
2023/04/25 01:43:53;;;;;;;0.00;0.00;;;6.60;80.00;;;;;;4953586;29;20055;-68
2023/04/25 01:46:19;;;;;;;0.00;0.00;;;6.60;79.80;;;;;;4953865;29;20058;-67
2023/04/25 01:48:45;;;;;;;0.00;0.00;;;6.60;79.60;;;;;;4953672;29;20058;-67
2023/04/25 01:51:11;;;;;;;0.00;0.00;;;6.50;79.30;;;;;;4953436;29;20039;-66
2023/04/25 01:53:38;;;;;;;0.00;0.00;;;6.50;79.20;;;;;;4953443;29;20154;-67
2023/04/25 01:56:04;;;;;;;0.00;0.00;;;6.50;79.10;;;;;;4953446;29;20051;-66
2023/04/25 01:58:30;;;;;;;0.00;0.00;;;6.40;78.40;;;;;;4953638;29;20039;-67
2023/04/25 02:00:55;;;;;;;0.00;0.00;;;6.30;78.50;;;;;;4953107;29;20035;-67
2023/04/25 02:03:21;;;;;;;0.00;0.00;;;6.30;79.10;;;;;;4953157;29;20046;-67
2023/04/25 02:05:46;;;;;;;0.00;0.00;;;6.20;78.90;;;;;;4936057;29;20126;-67
2023/04/25 02:08:12;;;;;;;0.00;0.00;;;6.30;79.40;;;;;;4935775;29;20058;-67
2023/04/25 02:10:37;;;;;;;0.00;0.00;;;6.30;78.60;;;;;;4953062;29;20042;-67
2023/04/25 02:13:05;;;;;;;0.00;0.00;;;6.40;78.30;;;;;;4920404;29;20053;-66
2023/04/25 02:15:30;;;;;;;0.00;0.00;;;6.30;75.80;;;;;;4953197;29;20055;-67
2023/04/25 02:17:57;;;;;;;0.00;0.00;;;6.20;75.40;;;;;;4953124;29;20825;-66
2023/04/25 02:20:24;;;;;;;0.00;0.00;;;6.10;74.20;;;;;;4952755;29;20111;-67
2023/04/25 02:22:50;;;;;;;0.00;0.00;;;6.10;73.90;;;;;;4935907;29;20066;-66
2023/04/25 02:25:17;;;;;;;0.17;0.17;;;5.90;74.30;;;;;;4952444;28;20843;-66
2023/04/25 02:27:43;;;;;;;0.00;0.00;;;5.90;74.80;;;;;;4953365;29;20045;-66
2023/04/25 02:30:08;;;;;;;1.48;1.38;;;5.80;74.90;;;;;;4953095;29;20043;-66
2023/04/25 02:32:34;;;;;;;0.00;0.00;;;5.80;75.50;;;;;;4935376;29;20098;-66
2023/04/25 02:35:03;;;;;;;1.10;1.10;;;5.90;76.20;;;;;;4953019;29;20809;-66
2023/04/25 02:37:30;;;;;;;0.00;0.00;;;5.90;77.10;;;;;;4952954;29;20086;-66
2023/04/25 02:39:56;;;;;;;0.00;0.00;;;5.80;77.90;;;;;;4952823;29;20044;-66
2023/04/25 02:42:21;;;;;;;0.00;0.00;;;5.80;78.30;;;;;;4952140;29;20062;-66
2023/04/25 02:44:47;;;;;;;0.10;0.10;;;5.70;77.90;;;;;;4951305;29;20051;-66
2023/04/25 02:47:12;;;;;;;0.00;0.00;;;5.70;77.90;;;;;;4935564;29;20078;-66
2023/04/25 02:49:38;;;;;;;0.00;0.00;;;5.70;78.00;;;;;;4952380;29;20055;-66
2023/04/25 02:52:04;;;;;;;0.00;0.00;;;5.80;77.80;;;;;;4952289;29;20040;-66
2023/04/25 02:54:30;;;;;;;0.15;0.15;;;5.80;77.80;;;;;;4935326;29;20054;-66
2023/04/25 02:56:55;;;;;;;0.00;0.00;;;5.70;77.50;;;;;;4952442;29;20061;-66
2023/04/25 02:59:21;;;;;;;0.00;0.00;;;5.80;78.00;;;;;;4951941;29;20137;-66
2023/04/25 03:01:46;;;;;;;0.00;0.00;;;5.80;78.00;;;;;;4919778;29;20616;-66
2023/04/25 03:04:12;;;;;;;0.00;0.00;;;5.80;78.10;;;;;;4900564;29;20048;-66
2023/04/25 03:06:37;;;;;;;0.08;0.08;;;5.80;78.30;;;;;;4900525;29;20058;-67
2023/04/25 03:09:03;;;;;;;0.00;0.00;;;5.80;78.50;;;;;;4932693;29;20053;-66
2023/04/25 03:11:29;;;;;;;0.00;0.00;;;5.80;78.40;;;;;;4934042;29;20082;-66
2023/04/25 03:13:55;;;;;;;0.75;0.75;;;5.80;78.60;;;;;;4933463;29;20083;-66
2023/04/25 03:16:21;;;;;;;0.10;0.10;;;5.90;78.80;;;;;;4931593;29;20057;-66
2023/04/25 03:18:47;;;;;;;0.00;0.00;;;5.90;79.10;;;;;;4932745;29;20119;-67
2023/04/25 03:21:12;;;;;;;0.03;0.03;;;5.80;79.10;;;;;;4932929;29;20036;-67
2023/04/25 03:23:38;;;;;;;0.00;0.00;;;5.80;79.50;;;;;;4915676;29;20048;-66
2023/04/25 03:26:04;;;;;;;0.00;0.00;;;5.90;80.30;;;;;;4915701;29;20514;-66
2023/04/25 03:28:29;;;;;;;0.00;0.00;;;5.80;80.20;;;;;;4932843;29;20040;-66
2023/04/25 03:30:55;;;;;;;1.45;1.35;;;5.80;80.40;;;;;;4932765;29;20067;-66
2023/04/25 03:33:20;;;;;;;0.00;0.00;;;5.90;80.10;;;;;;4932442;29;20048;-66
2023/04/25 03:35:46;;;;;;;0.10;0.10;;;5.80;80.40;;;;;;4932475;29;20087;-67
2023/04/25 03:38:11;;;;;;;0.00;0.00;;;5.70;80.80;;;;;;4932712;29;20580;-67
2023/04/25 03:40:37;;;;;;;0.00;0.00;;;5.60;81.20;;;;;;4932621;29;20059;-67
2023/04/25 03:43:02;;;;;;;0.00;0.00;;;5.60;81.10;;;;;;4931972;29;20048;-66
2023/04/25 03:45:28;;;;;;;0.00;0.00;;;5.60;81.10;;;;;;4932649;29;20436;-66
2023/04/25 03:47:54;;;;;;;0.00;0.00;;;5.60;81.00;;;;;;4932514;29;20607;-66
2023/04/25 03:50:19;;;;;;;0.00;0.00;;;5.70;80.90;;;;;;4932151;29;20090;-66
2023/04/25 03:52:45;;;;;;;0.00;0.00;;;5.60;80.90;;;;;;4931177;29;20043;-66
2023/04/25 03:55:10;;;;;;;0.00;0.00;;;5.70;80.80;;;;;;4932046;29;20043;-66
2023/04/25 03:57:36;;;;;;;0.15;0.15;;;5.70;80.80;;;;;;4932422;29;20044;-66
2023/04/25 04:00:03;;;;;;;0.00;0.00;;;5.70;80.70;;;;;;4934054;29;20074;-66
2023/04/25 04:02:28;;;;;;;0.05;0.05;;;5.80;80.50;;;;;;4933975;29;20118;-66
2023/04/25 04:04:55;;;;;;;0.00;0.00;;;5.80;80.50;;;;;;4934199;29;20130;-66
2023/04/25 04:07:21;;;;;;;0.00;0.00;;;5.80;80.30;;;;;;4951215;29;20089;-66
2023/04/25 04:09:46;;;;;;;0.00;0.00;;;5.70;80.50;;;;;;4951376;29;20044;-67
2023/04/25 04:12:12;;;;;;;0.20;0.20;;;5.80;80.60;;;;;;4951511;29;20047;-66
2023/04/25 04:14:37;;;;;;;0.00;0.00;;;5.80;79.90;;;;;;4952259;29;20046;-66
2023/04/25 04:17:03;;;;;;;0.00;0.00;;;5.70;79.50;;;;;;4951498;29;20118;-66
2023/04/25 04:19:29;;;;;;;0.00;0.00;;;5.70;79.60;;;;;;4933875;29;20519;-66
2023/04/25 04:21:54;;;;;;;0.00;0.00;;;5.70;79.60;;;;;;4950838;29;20050;-67
2023/04/25 04:24:20;;;;;;;0.00;0.00;;;5.70;79.90;;;;;;4950912;29;20093;-66
2023/04/25 04:26:46;;;;;;;0.00;0.00;;;5.60;80.00;;;;;;4950970;29;20087;-66
2023/04/25 04:29:11;;;;;;;0.00;0.00;;;5.60;80.30;;;;;;4951005;29;20082;-66
2023/04/25 04:31:37;;;;;;;0.00;0.00;;;5.60;80.30;;;;;;4951049;29;20043;-66
2023/04/25 04:34:03;;;;;;;0.00;0.00;;;5.60;79.10;;;;;;4950952;29;20055;-67
2023/04/25 04:36:29;;;;;;;1.92;1.75;;;5.70;78.50;;;;;;4918262;29;20109;-66
2023/04/25 04:38:56;;;;;;;0.00;0.00;;;5.60;78.30;;;;;;4951099;29;20519;-66
2023/04/25 04:41:22;;;;;;;0.00;0.00;;;5.70;78.40;;;;;;4950590;29;20051;-66
2023/04/25 04:43:47;;;;;;;0.00;0.00;;;5.60;78.70;;;;;;4950703;28;20070;-66
2023/04/25 04:46:13;;;;;;;0.10;0.10;;;5.60;79.20;;;;;;4950998;29;20508;-66
2023/04/25 04:48:39;;;;;;;0.30;0.30;;;5.60;79.70;;;;;;4952483;28;20051;-66
2023/04/25 04:51:06;;;;;;;0.00;0.00;;;5.60;80.40;;;;;;4921779;29;20050;-66
2023/04/25 04:53:32;;;;;;;1.00;1.00;;;5.60;80.80;;;;;;4954202;29;20051;-66
2023/04/25 04:55:57;;;;;;;0.00;0.00;;;5.60;81.50;;;;;;4954791;29;20145;-66
2023/04/25 04:58:23;;;;;;;0.00;0.00;;;5.50;82.00;;;;;;4954444;29;20079;-66
2023/04/25 05:00:49;;;;;;;0.00;0.00;;;5.50;82.00;;;;;;4952067;29;20518;-66
2023/04/25 05:03:15;;;;;;;0.00;0.00;;;5.50;82.10;;;;;;4954099;29;20051;-65
2023/04/25 05:05:41;;;;;;;0.00;0.00;;;5.50;82.10;;;;;;4954124;29;20436;-66
2023/04/25 05:08:07;;;;;;;0.00;0.00;;;5.60;82.10;;;;;;4954763;29;20047;-66
2023/04/25 05:10:33;;;;;;;0.10;0.10;;;5.60;82.00;;;;;;4955207;28;20558;-66
2023/04/25 05:12:58;;;;;;;0.00;0.00;;;5.60;81.90;;;;;;4954180;29;20539;-65
2023/04/25 05:15:24;;;;;;;0.10;0.10;;;5.60;81.50;;;;;;4954026;29;20051;-66
2023/04/25 05:17:49;;;;;;;0.00;0.00;;;5.60;81.30;;;;;;4936809;29;20056;-65
2023/04/25 05:20:15;;;;;;;0.10;0.10;;;5.60;81.00;;;;;;4954219;29;20065;-66
2023/04/25 05:22:41;;;;;;;0.00;0.00;;;5.60;80.70;;;;;;4953861;29;20047;-66
2023/04/25 05:25:08;;;;;;;0.00;0.00;;;5.70;80.70;;;;;;4953138;29;20102;-68
2023/04/25 05:27:34;;;;;;;0.00;0.00;;;5.70;80.40;;;;;;4953484;29;20058;-65
2023/04/25 05:30:00;;;;;;;1.05;0.95;;;5.70;80.40;;;;;;4920698;29;20055;-66
2023/04/25 05:32:26;;;;;;;0.00;0.00;;;5.70;80.50;;;;;;4953174;29;20057;-68
2023/04/25 05:34:54;;;;;;;0.10;0.10;;;5.70;80.70;;;;;;4950409;29;20614;-65
2023/04/25 05:37:20;;;;;;;0.00;0.00;;;5.70;80.50;;;;;;4953554;29;20126;-66
2023/04/25 05:39:45;;;;;;;0.00;0.00;;;5.70;80.80;;;;;;4950680;28;20050;-65
2023/04/25 05:42:11;;;;;;;0.00;0.00;;;5.70;80.70;;;;;;4953296;29;20138;-66
2023/04/25 05:44:37;;;;;;;0.30;0.30;;;5.80;80.70;;;;;;4952345;29;20075;-66
2023/04/25 05:47:04;;;;;;;0.00;0.00;;;5.90;80.70;;;;;;4952601;29;20138;-66
2023/04/25 05:49:29;;;;;;;0.08;0.08;;;5.90;80.50;;;;;;4936036;29;20051;-66
2023/04/25 05:51:55;;;;;;;0.00;0.00;;;5.90;79.60;;;;;;4953503;29;20051;-68
2023/04/25 05:54:20;;;;;;;0.00;0.00;;;5.90;80.00;;;;;;4953274;29;20047;-66
2023/04/25 05:56:46;;;;;;;0.00;0.00;;;5.90;80.00;;;;;;4953581;29;20047;-66
2023/04/25 05:59:11;;;;;;;0.00;0.00;;;5.90;80.10;;;;;;4942428;29;20051;-69
2023/04/25 06:01:37;;;;;;;0.00;0.00;;;6.10;80.50;;;;;;4935552;29;20047;-67
2023/04/25 06:04:03;;;;;;;0.25;0.25;;;6.10;80.10;;;;;;4914989;29;20043;-67
2023/04/25 06:06:28;;;;;;;0.00;0.00;;;6.10;80.20;;;;;;4944959;29;20050;-69
2023/04/25 06:08:55;;;;;;;0.00;0.00;;;6.60;85.90;;;;;;4941506;29;20114;-69
2023/04/25 06:11:20;;;;;;;0.00;0.00;;;6.60;80.50;;;;;;4939747;29;20043;-69
2023/04/25 06:13:46;;;;;;;0.35;0.35;;;6.90;79.40;;;;;;4948230;29;20031;-69
2023/04/25 06:16:11;;;;;;;0.00;0.00;;;6.90;78.30;;;;;;4948632;29;20055;-69
2023/04/25 06:18:37;;;;;;;0.00;0.00;;;6.90;77.30;;;;;;4947950;29;20049;-69
2023/04/25 06:21:03;;;;;;;0.00;0.00;;;6.90;77.60;;;;;;4942129;29;20036;-65
2023/04/25 06:23:28;;;;;;;0.00;0.00;;;6.90;77.30;;;;;;4944519;29;20098;-65
2023/04/25 06:25:54;;;;;;;0.43;0.43;;;6.80;77.80;;;;;;4941623;29;20140;-64
2023/04/25 06:28:21;;;;;;;0.00;0.00;;;6.70;77.70;;;;;;4943208;29;20095;-64
2023/04/25 06:30:47;;;;;;;0.00;0.00;;;6.60;76.10;;;;;;4941955;29;20464;-64
2023/04/25 06:33:12;;;;;;;0.00;0.00;;;6.60;76.00;;;;;;4942290;29;20047;-64
2023/04/25 06:35:38;;;;;;;0.00;0.00;;;6.60;76.60;;;;;;4943490;29;20047;-64
2023/04/25 06:38:04;;;;;;;0.00;0.00;;;6.60;76.80;;;;;;4915819;29;20051;-65
2023/04/25 06:40:29;;;;;;;0.00;0.00;;;6.60;77.50;;;;;;4939842;29;20040;-65
2023/04/25 06:42:55;;;;;;;0.00;0.00;;;6.60;75.70;;;;;;4932445;29;20126;-64
2023/04/25 06:45:20;;;;;;;0.00;0.00;;;6.60;76.00;;;;;;4930745;29;20063;-65
2023/04/25 06:47:46;;;;;;;0.00;0.00;;;6.70;75.30;;;;;;4948599;29;20039;-64
2023/04/25 06:50:11;;;;;;;0.00;0.00;;;6.70;75.50;;;;;;4941201;29;20456;-64
2023/04/25 06:52:37;;;;;;;0.00;0.00;;;6.60;75.50;;;;;;4947501;28;20492;-63
2023/04/25 06:55:04;;;;;;;0.00;0.00;;;6.60;75.60;;;;;;4915780;29;20062;-65
2023/04/25 06:57:30;;;;;;;0.00;0.00;;;6.70;75.90;;;;;;4945079;29;20044;-64
2023/04/25 06:59:55;;;;;;;0.00;0.00;;;6.80;76.00;;;;;;4937892;29;21340;-65
2023/04/25 07:02:22;;;;;;;0.00;0.00;;;6.80;76.10;;;;;;4944566;29;20416;-64
2023/04/25 07:04:47;;;;;;;0.00;0.00;;;6.80;76.70;;;;;;4938091;29;20040;-64
2023/04/25 07:07:13;;;;;;;0.52;0.52;;;6.70;77.50;;;;;;4939862;29;20047;-65
2023/04/25 07:09:38;;;;;;;0.15;0.15;;;6.50;78.20;;;;;;4941249;29;20047;-64
2023/04/25 07:12:04;;;;;;;0.00;0.00;;;6.40;79.50;;;;;;4940640;28;20046;-64
2023/04/25 07:14:30;;;;;;;0.00;0.00;;;6.20;79.80;;;;;;4940610;29;20046;-64
2023/04/25 07:16:56;;;;;;;0.00;0.00;;;6.10;79.90;;;;;;4940650;29;20110;-64
2023/04/25 07:19:26;;;;;;;0.00;0.00;;;6.10;80.20;;;;;;4941156;29;20050;-64
2023/04/25 07:21:52;;;;;;;45.50;2.22;;;6.10;80.00;;;;;;4946573;29;20062;-64
2023/04/25 07:24:17;;;;;;;1.67;1.10;;;6.10;78.40;;;;;;4940239;29;20051;-64
2023/04/25 07:26:43;;;;;;;0.00;0.00;;;6.10;78.40;;;;;;4939903;29;20035;-64
2023/04/25 07:29:08;;;;;;;0.00;0.00;;;6.00;78.70;;;;;;4941635;29;20047;-64
2023/04/25 07:31:34;;;;;;;0.00;0.00;;;6.10;78.80;;;;;;4931011;29;20047;-64
2023/04/25 07:33:59;;;;;;;0.10;0.10;;;6.00;79.40;;;;;;4939359;29;20044;-64
2023/04/25 07:36:26;;;;;;;1.08;1.08;;;6.10;79.20;;;;;;4935702;29;20049;-64
2023/04/25 07:38:51;;;;;;;0.00;0.00;;;6.10;78.60;;;;;;4938750;29;20137;-64
2023/04/25 07:41:17;;;;;;;0.00;0.00;;;6.10;78.90;;;;;;4940096;29;20122;-64
2023/04/25 07:43:43;;;;;;;0.00;0.00;;;6.10;78.10;;;;;;4939211;29;20135;-63
2023/04/25 07:46:08;;;;;;;0.00;0.00;;;6.30;78.20;;;;;;4930743;29;20048;-64
2023/04/25 07:48:34;;;;;;;0.00;0.00;;;6.50;78.50;;;;;;4939139;29;20039;-64
2023/04/25 07:50:59;;;;;;;0.20;0.20;;;6.70;78.60;;;;;;4940217;29;20047;-63
2023/04/25 07:53:25;;;;;;;1.85;1.75;;;6.90;76.00;;;;;;4915526;29;20053;-64
2023/04/25 07:55:51;;;;;;;0.10;0.10;;;6.90;75.00;;;;;;4939806;29;20047;-64
2023/04/25 07:58:21;;;;;;;0.00;0.00;;;7.00;76.10;;;;;;4940834;29;20063;-64
2023/04/25 08:00:46;;;;;;;0.00;0.00;;;7.10;75.40;;;;;;4939626;29;20439;-63
2023/04/25 08:03:12;;;;;;;0.00;0.00;;;6.80;75.10;;;;;;4940197;29;20052;-65
2023/04/25 08:05:38;;;;;;;0.00;0.00;;;6.50;75.00;;;;;;4939325;29;20043;-64
2023/04/25 08:08:06;;;;;;;0.00;0.00;;;6.50;75.70;;;;;;4940010;29;20047;-64
2023/04/25 08:10:32;;;;;;;0.00;0.00;;;6.50;75.40;;;;;;4940854;28;20047;-64
2023/04/25 08:12:57;;;;;;;0.00;0.00;;;6.60;76.20;;;;;;4940129;29;20055;-64
2023/04/25 08:15:23;;;;;;;0.00;0.00;;;6.70;77.30;;;;;;4947178;29;20515;-63
2023/04/25 08:17:48;;;;;;;0.00;0.00;;;6.80;76.10;;;;;;4937511;29;20042;-64
2023/04/25 08:20:14;;;;;;;0.00;0.00;;;6.90;74.60;;;;;;4940579;29;20117;-65
2023/04/25 08:22:40;;;;;;;0.00;0.00;;;7.00;75.30;;;;;;4938022;29;20047;-63
2023/04/25 08:25:05;;;;;;;0.00;0.00;;;7.10;75.50;;;;;;4943994;29;20488;-63
2023/04/25 08:27:31;;;;;;;0.00;0.00;;;7.20;74.70;;;;;;4943893;29;20493;-64
2023/04/25 08:29:57;;;;;;;0.00;0.00;;;7.40;75.60;;;;;;4936378;29;20043;-63
2023/04/25 08:32:23;;;;;;;0.30;0.30;;;7.60;76.00;;;;;;4942106;29;20062;-64
2023/04/25 08:34:48;;;;;;;0.00;0.00;;;7.80;73.80;;;;;;4944060;29;20643;-64
2023/04/25 08:37:14;;;;;;;0.00;0.00;;;7.80;72.40;;;;;;4943872;29;20512;-64
2023/04/25 08:39:40;;;;;;;0.00;0.00;;;7.90;72.50;;;;;;4943601;29;20043;-64
2023/04/25 08:42:10;;;;;;;0.00;0.00;;;8.00;70.00;;;;;;4934128;29;20071;-64
2023/04/25 08:44:36;;;;;;;0.00;0.00;;;8.00;70.20;;;;;;4951635;28;20126;-64
2023/04/25 08:47:04;;;;;;;0.00;0.00;;;8.10;70.50;;;;;;4952840;28;20107;-64
2023/04/25 08:49:32;;;;;;;0.00;0.00;;;8.30;71.60;;;;;;4952866;28;20412;-64
2023/04/25 08:52:00;;;;;;;0.00;0.00;;;8.20;71.60;;;;;;4933888;29;20051;-65
2023/04/25 08:54:28;;;;;;;0.10;0.10;;;8.10;72.30;;;;;;4950818;28;21527;-64
2023/04/25 08:56:54;;;;;;;0.00;0.00;;;8.10;71.50;;;;;;4950128;28;20043;-65
2023/04/25 08:59:22;;;;;;;0.00;0.00;;;8.10;70.30;;;;;;4951715;29;20120;-64
2023/04/25 09:01:49;;;;;;;0.00;0.00;;;8.20;70.30;;;;;;4950420;28;20043;-64
2023/04/25 09:04:15;;;;;;;0.00;0.00;;;8.10;71.50;;;;;;4950842;28;20059;-64
2023/04/25 09:06:41;;;;;;;0.00;0.00;;;7.90;72.40;;;;;;4952282;28;20039;-64
2023/04/25 09:09:09;;;;;;;0.00;0.00;;;7.90;73.10;;;;;;4952261;28;20044;-64
2023/04/25 09:11:36;;;;;;;0.00;0.00;;;7.80;72.20;;;;;;4952844;29;20055;-64
2023/04/25 09:14:20;;;;;;;0.00;0.00;;;7.90;71.50;;;;;;4952150;28;20051;-64
2023/04/25 09:16:59;;;;;;;0.00;0.00;;;8.00;70.90;;;;;;4952024;28;20054;-64
2023/04/25 09:19:26;;;;;;;0.00;0.00;;;8.10;71.60;;;;;;4952630;28;20055;-64
2023/04/25 09:21:57;;;;;;;0.10;0.10;;;8.10;67.70;;;;;;4930524;29;20436;-64
2023/04/25 09:24:34;;;;;;;0.00;0.00;;;8.20;68.40;;;;;;4951313;28;20098;-64
2023/04/25 09:27:03;;;;;;;0.00;0.00;;;8.10;70.10;;;;;;4950600;28;20130;-65
2023/04/25 09:29:33;;;;;;;0.00;0.00;;;7.80;72.30;;;;;;4951435;28;20051;-64
2023/04/25 09:32:28;;;;;;;0.10;0.10;;;7.70;73.50;;;;;;4951145;28;20122;-65
2023/04/25 09:34:57;;;;;;;0.10;0.10;;;7.40;75.40;;;;;;4931300;28;20051;-65
2023/04/25 09:37:25;;;;;;;0.00;0.00;;;7.40;75.60;;;;;;4951404;28;20084;-65
2023/04/25 09:39:55;;;;;;;0.00;0.00;;;7.20;75.20;;;;;;4950999;28;20039;-65
2023/04/25 09:42:25;;;;;;;0.38;0.38;;;7.00;75.90;;;;;;4951719;28;20579;-64
2023/04/25 09:44:55;;;;;;;0.00;0.00;;;6.80;76.00;;;;;;4934485;29;20436;-64
2023/04/25 09:47:23;;;;;;;0.00;0.00;;;6.70;76.30;;;;;;4951660;28;20042;-64
2023/04/25 09:49:50;;;;;;;0.00;0.00;;;6.60;75.70;;;;;;4951581;28;20035;-64
2023/04/25 09:52:20;;;;;;;0.00;0.00;;;6.60;76.20;;;;;;4951837;28;20132;-64
2023/04/25 09:54:47;;;;;;;0.00;0.00;;;6.60;76.20;;;;;;4951120;28;20035;-64
2023/04/25 09:57:17;;;;;;;0.00;0.00;;;6.70;75.60;;;;;;4949135;28;20505;-65
2023/04/25 09:59:45;;;;;;;0.00;0.00;;;6.80;74.00;;;;;;4951716;28;20126;-64
2023/04/25 10:02:12;;;;;;;0.00;0.00;;;6.90;73.90;;;;;;4951227;28;20039;-63
2023/04/25 10:04:39;;;;;;;0.00;0.00;;;7.10;73.10;;;;;;4951623;28;20051;-66
2023/04/25 10:07:08;;;;;;;5.60;3.20;;;7.30;73.70;;;;;;4951566;28;20067;-66
2023/04/25 10:09:37;;;;;;;0.10;0.10;;;7.60;73.20;;;;;;4948182;28;20059;-65
2023/04/25 10:12:03;;;;;;;0.00;0.00;;;7.70;71.10;;;;;;4951119;28;20039;-64
2023/04/25 10:14:32;;;;;;;0.00;0.00;;;7.80;71.20;;;;;;4948145;28;20613;-65
2023/04/25 10:16:59;;;;;;;0.00;0.00;;;7.80;71.50;;;;;;4949638;28;20040;-65
2023/04/25 10:19:26;;;;;;;0.75;0.75;;;7.90;72.00;;;;;;4950109;29;20043;-65
2023/04/25 10:21:56;;;;;;;0.00;0.00;;;8.20;72.80;;;;;;4950696;28;20058;-66
2023/04/25 10:24:24;;;;;;;0.00;0.00;;;8.30;71.50;;;;;;4948467;28;20178;-64
2023/04/25 10:26:50;;;;;;;0.05;0.05;;;8.40;69.90;;;;;;4933744;29;20047;-64
2023/04/25 10:29:26;;;;;;;0.00;0.00;;;8.40;67.00;;;;;;4933859;28;20101;-63
2023/04/25 10:31:51;;;;;;;0.00;0.00;;;8.30;63.00;;;;;;4933244;29;20187;-64
2023/04/25 10:34:18;;;;;;;0.00;0.00;;;8.40;61.50;;;;;;4950315;28;20047;-64
2023/04/25 10:36:51;;;;;;;0.30;0.30;;;8.60;64.60;;;;;;4949238;28;20108;-63
2023/04/25 10:39:24;;;;;;;0.45;0.45;;;8.70;64.40;;;;;;4923576;29;20047;-65
2023/04/25 10:41:57;;;;;;;0.00;0.00;;;8.80;65.20;;;;;;4950562;28;20467;-64
2023/04/25 10:44:27;;;;;;;0.00;0.00;;;8.80;63.50;;;;;;4950041;28;20500;-64
2023/04/25 10:46:56;;;;;;;0.00;0.00;;;8.90;61.60;;;;;;4948693;28;20101;-65
2023/04/25 10:49:37;;;;;;;0.28;0.28;;;9.00;62.80;;;;;;4914173;29;20213;-66
2023/04/25 10:52:12;;;;;;;0.00;0.00;;;8.90;60.90;;;;;;4950358;29;20062;-66
2023/04/25 10:54:58;;;;;;;0.00;0.00;;;9.00;64.60;;;;;;4949293;28;20039;-64
2023/04/25 10:57:40;;;;;;;0.00;0.00;;;8.80;66.20;;;;;;4947267;28;20405;-66
2023/04/25 11:00:10;;;;;;;0.00;0.00;;;8.50;68.00;;;;;;4949812;28;20053;-66
2023/04/25 11:02:42;;;;;;;0.20;0.20;;;8.10;70.70;;;;;;4949317;28;20091;-65
2023/04/25 11:05:10;;;;;;;0.00;0.00;;;8.00;70.00;;;;;;4948910;29;20511;-65
2023/04/25 11:07:50;;;;;;;0.00;0.00;;;7.80;71.50;;;;;;4913982;28;20560;-66
2023/04/25 11:10:16;;;;;;;0.00;0.00;;;7.90;72.50;;;;;;4948729;28;20070;-65
2023/04/25 11:12:41;;;;;;;0.00;0.00;;;8.10;72.30;;;;;;4931819;28;20093;-64
2023/04/25 11:15:07;;;;;;;0.30;0.30;;;8.10;68.60;;;;;;4950158;28;20502;-65
2023/04/25 11:17:33;;;;;;;0.00;0.00;;;8.30;64.00;;;;;;4949953;28;20047;-66
2023/04/25 11:20:00;;;;;;;0.00;0.00;;;8.40;63.70;;;;;;4950090;28;20050;-65
2023/04/25 11:22:27;;;;;;;0.00;0.00;;;8.40;61.60;;;;;;4950188;28;20416;-65
2023/04/25 11:24:53;;;;;;;0.00;0.00;;;8.50;64.60;;;;;;4932603;28;20097;-65
2023/04/25 11:27:19;;;;;;;0.00;0.00;;;8.30;64.40;;;;;;4949662;28;20082;-65
2023/04/25 11:29:47;;;;;;;0.20;0.20;;;8.40;65.20;;;;;;4949987;28;20055;-65
2023/04/25 11:32:14;;;;;;;0.10;0.10;;;8.50;65.20;;;;;;4931951;28;21275;-65
2023/04/25 11:34:44;;;;;;;0.10;0.10;;;8.60;66.30;;;;;;4947997;28;20055;-64
2023/04/25 11:37:11;;;;;;;0.00;0.00;;;8.80;66.70;;;;;;4948575;28;20495;-65
2023/04/25 11:39:37;;;;;;;0.00;0.00;;;9.00;66.70;;;;;;4933601;28;20070;-64
2023/04/25 11:42:05;;;;;;;0.00;0.00;;;9.10;66.50;;;;;;4948181;29;20713;-64
2023/04/25 11:44:31;;;;;;;0.80;0.80;;;9.10;64.00;;;;;;4942807;28;20060;-65
2023/04/25 11:46:56;;;;;;;0.00;0.00;;;9.10;64.50;;;;;;4939696;29;20488;-63
2023/04/25 11:49:24;;;;;;;0.00;0.00;;;9.10;65.50;;;;;;4939461;29;20110;-64
2023/04/25 11:51:50;;;;;;;0.00;0.00;;;9.10;64.30;;;;;;4939574;29;20047;-63
2023/04/25 11:54:15;;;;;;;0.20;0.20;;;8.90;64.20;;;;;;4940410;29;20118;-64
2023/04/25 11:56:45;;;;;;;0.00;0.00;;;8.90;64.10;;;;;;4940289;29;20047;-64
2023/04/25 11:59:11;;;;;;;0.00;0.00;;;9.00;64.80;;;;;;4939214;29;20047;-65
2023/04/25 12:01:47;;;;;;;0.00;0.00;;;8.80;64.80;;;;;;4924783;29;20051;-64
2023/04/25 12:04:21;;;;;;;0.00;0.00;;;8.80;63.70;;;;;;4941733;29;20036;-65
2023/04/25 12:06:50;;;;;;;0.73;0.73;;;9.10;63.70;;;;;;4940059;29;20035;-64
2023/04/25 12:09:19;;;;;;;0.00;0.00;;;9.20;61.70;;;;;;4939925;28;20070;-64
2023/04/25 12:11:53;;;;;;;0.00;0.00;;;9.40;62.00;;;;;;4936016;29;20043;-64
2023/04/25 12:14:24;;;;;;;0.50;0.50;;;9.50;56.70;;;;;;4941289;29;20109;-64
2023/04/25 12:16:53;;;;;;;0.07;0.07;;;9.60;60.10;;;;;;4940395;29;20094;-64
2023/04/25 12:19:20;;;;;;;0.00;0.00;;;9.80;61.50;;;;;;4939724;29;20283;-65
2023/04/25 12:21:46;;;;;;;0.70;0.63;;;9.80;59.90;;;;;;4946286;29;20047;-64
2023/04/25 12:24:16;;;;;;;0.00;0.00;;;9.90;60.60;;;;;;4940631;29;20046;-64
2023/04/25 12:26:51;;;;;;;0.00;0.00;;;9.70;57.00;;;;;;4938925;29;20039;-64
2023/04/25 12:29:25;;;;;;;0.00;0.00;;;9.90;59.10;;;;;;4940067;29;20039;-65
2023/04/25 12:31:52;;;;;;;0.03;0.03;;;9.90;57.90;;;;;;4941403;29;20047;-64
2023/04/25 12:34:21;;;;;;;0.00;0.00;;;10.10;57.80;;;;;;4940532;29;20039;-64
2023/04/25 12:36:48;;;;;;;0.35;0.35;;;10.10;59.20;;;;;;4940832;29;20505;-65
2023/04/25 12:39:19;;;;;;;0.00;0.00;;;9.90;57.70;;;;;;4941468;29;20405;-64
2023/04/25 12:41:46;;;;;;;0.00;0.00;;;9.70;59.90;;;;;;4940400;29;20062;-64
2023/04/25 12:44:12;;;;;;;0.20;0.20;;;9.60;61.30;;;;;;4940631;28;20788;-65
2023/04/25 12:46:37;;;;;;;0.00;0.00;;;9.60;57.70;;;;;;4927994;29;20133;-65
2023/04/25 12:49:04;;;;;;;0.63;0.63;;;9.40;56.50;;;;;;4934488;29;20047;-64
2023/04/25 12:51:32;;;;;;;0.00;0.00;;;9.30;57.30;;;;;;4946462;29;20047;-64
2023/04/25 12:53:58;;;;;;;0.55;0.55;;;9.30;59.00;;;;;;4941404;29;20054;-64
2023/04/25 12:56:25;;;;;;;0.00;0.00;;;9.30;60.70;;;;;;4938012;29;20048;-64
2023/04/25 12:58:50;;;;;;;0.47;0.47;;;9.30;60.20;;;;;;4915675;29;20094;-64
2023/04/25 13:01:16;;;;;;;0.65;0.65;;;9.20;59.10;;;;;;4932583;29;20500;-64
2023/04/25 13:03:42;;;;;;;0.00;0.00;;;9.20;58.50;;;;;;4931951;29;20043;-64
2023/04/25 13:06:07;;;;;;;0.05;0.05;;;9.20;55.90;;;;;;4932406;29;20044;-65
2023/04/25 13:08:34;;;;;;;0.00;0.00;;;9.30;55.60;;;;;;4942906;28;20424;-64
2023/04/25 13:11:00;;;;;;;0.00;0.00;;;9.40;54.60;;;;;;4954212;29;20122;-64
2023/04/25 13:13:27;;;;;;;0.00;0.00;;;9.50;55.90;;;;;;4953787;29;20145;-64
2023/04/25 13:15:52;;;;;;;0.00;0.00;;;9.60;57.10;;;;;;4954009;29;20185;-64
2023/04/25 13:18:19;;;;;;;0.63;0.63;;;9.80;55.90;;;;;;4954134;29;20126;-64
2023/04/25 13:20:46;;;;;;;0.10;0.10;;;9.80;56.90;;;;;;4953952;29;20051;-65
2023/04/25 13:23:11;;;;;;;0.00;0.00;;;9.70;57.50;;;;;;4953265;29;20060;-63